Groveland, Massachusetts
Current Conditions -  °F | °C
As of 6:54 AM on Sunday 23 Nov 2014 (Local Time) from KLWM Reporting Station
Few Clouds Few Clouds  
Wind Chill: 37°   Ceiling: Unl
Heat Index: 42°   Visibility: 10mi
Dew Point: 30°   Wind: 8mph
Humidity: 62%   Direction: 220°SW
Pressure: 30.09"   Gusts: NA
Location:  42.76°N, 71.03°W
Report Text: KLWM 231154Z AUTO 22007KT 10SM FEW110 06/M01 A3009 RMK AO2 SLP190 60000 T00561011 10061 20044 53005
Loading
Personal Weather Stations






























Interactive Weather Map New forecast layout! Learn more

10-Day Weather Forecast

Advertisements
Track Severe Weather on mobile